createdAt,value
2018-03-26T00:02:34.918Z,5.73
2018-03-26T00:17:35.151Z,4.87
2018-03-26T00:32:35.170Z,5.77
2018-03-26T00:47:35.140Z,5.57
2018-03-26T01:02:34.670Z,7.30
2018-03-26T01:17:36.390Z,7.63
2018-03-26T01:32:34.326Z,8.07
2018-03-26T02:02:35.814Z,10.40
2018-03-26T02:17:38.071Z,9.20
2018-03-26T02:32:37.041Z,10.00
2018-03-26T02:47:37.528Z,11.73
2018-03-26T03:02:36.601Z,6.83
2018-03-26T03:17:36.028Z,4.77
2018-03-26T03:32:34.747Z,3.90
2018-03-26T04:17:34.477Z,5.47
2018-03-26T04:47:36.926Z,8.00
2018-03-26T05:02:34.958Z,9.20
2018-03-26T05:17:34.312Z,10.33
2018-03-26T05:32:34.211Z,11.63
2018-03-26T05:47:34.570Z,11.10
2018-03-26T06:02:35.063Z,12.27
2018-03-26T06:32:38.640Z,9.90
2018-03-26T06:47:36.049Z,8.80
2018-03-26T07:02:34.497Z,9.20
2018-03-26T07:32:35.814Z,7.47
2018-03-26T07:47:33.801Z,5.83
2018-03-26T08:17:36.286Z,8.43
2018-03-26T08:47:35.312Z,7.67
2018-03-26T09:02:36.148Z,7.20
2018-03-26T09:17:35.050Z,8.27
2018-03-26T09:32:34.507Z,7.10
2018-03-26T09:47:34.860Z,6.03
2018-03-26T10:02:34.884Z,5.80
2018-03-26T10:17:35.727Z,7.47
2018-03-26T10:32:34.132Z,7.60
2018-03-26T10:47:34.662Z,8.33
2018-03-26T11:02:37.096Z,6.20
2018-03-26T11:17:34.457Z,8.43
2018-03-26T11:32:34.930Z,10.43
2018-03-26T11:47:34.321Z,10.90
2018-03-26T12:02:34.276Z,7.10
2018-03-26T12:17:34.668Z,9.67
2018-03-26T12:32:35.631Z,11.47
2018-03-26T12:47:36.581Z,8.40
2018-03-26T13:02:36.549Z,8.83
2018-03-26T13:17:37.391Z,9.80
2018-03-26T13:32:34.892Z,11.13
2018-03-26T13:47:34.893Z,20.03
2018-03-26T14:32:37.228Z,11.13
2018-03-26T15:02:35.141Z,13.63
2018-03-26T15:17:34.367Z,17.70
2018-03-26T15:32:34.314Z,18.77
2018-03-26T15:47:36.300Z,17.27
2018-03-26T16:02:52.342Z,16.70
2018-03-26T16:17:34.654Z,32.13
2018-03-26T16:32:36.614Z,26.80
2018-03-26T16:47:37.845Z,27.30
2018-03-26T17:17:40.104Z,32.10
2018-03-26T17:32:35.296Z,29.63
2018-03-26T17:47:41.770Z,28.83
2018-03-26T18:02:37.828Z,25.17
2018-03-26T18:17:37.130Z,29.13
2018-03-26T18:32:37.176Z,30.70
2018-03-26T18:47:37.958Z,28.00
2018-03-26T19:17:34.423Z,35.20
2018-03-26T19:32:36.973Z,36.13
2018-03-26T19:47:36.685Z,56.87
2018-03-26T20:02:44.428Z,65.17
2018-03-26T20:17:36.618Z,64.53
2018-03-26T20:32:36.556Z,75.10
2018-03-26T21:02:38.514Z,77.53
2018-03-26T21:17:36.800Z,77.23
2018-03-26T21:32:36.242Z,79.07
2018-03-26T21:47:34.761Z,87.63
2018-03-26T22:02:38.567Z,86.43
2018-03-26T22:17:37.016Z,104.00
2018-03-26T22:32:36.914Z,89.23
2018-03-26T23:02:34.900Z,110.30
2018-03-26T23:17:34.118Z,90.00
2018-03-26T23:32:37.196Z,83.50
